Terminal Aerodrome Forecast
Issued by NWS

Home | Current Version | Previous Version | Text Only | Print | Product List | Glossary On
Versions: 1 2 3 4 5 6 7 8 9 10 11 12 13 14 15 16 17 18 19 20 21 22
000
FTUS43 KJKL 231100
TAFSME
TAF
KSME 231138Z 2312/2412 00000KT 5SM BR BKN040 BKN050
      TEMPO 2312/2313 2SM BR BKN040
     FM231300 VRB05KT P6SM SCT030 BKN100
     FM232100 30005KT P6SM VCTS BKN030CB BKN050
     FM240600 00000KT 4SM BR SKC
     FM240700 00000KT 2SM BR SKC=

USA.gov is the U.S. government's official web portal to all federal, state and local government web resources and services.